sensor_id;sensor_type;location;lat;lon;timestamp;P1;durP1;ratioP1;P2;durP2;ratioP2
42168;SDS011;27838;43.858;25.974;2023-02-28T00:01:13;10.65;;;8.43;;
42168;SDS011;27838;43.858;25.974;2023-02-28T00:03:40;13.30;;;8.25;;
42168;SDS011;27838;43.858;25.974;2023-02-28T00:06:07;13.98;;;8.25;;
42168;SDS011;27838;43.858;25.974;2023-02-28T00:08:35;13.55;;;7.78;;
42168;SDS011;27838;43.858;25.974;2023-02-28T00:11:04;12.88;;;7.88;;
42168;SDS011;27838;43.858;25.974;2023-02-28T00:13:33;11.50;;;8.27;;
42168;SDS011;27838;43.858;25.974;2023-02-28T00:16:03;10.77;;;8.43;;
42168;SDS011;27838;43.858;25.974;2023-02-28T00:18:31;9.52;;;7.47;;
42168;SDS011;27838;43.858;25.974;2023-02-28T00:20:58;10.38;;;8.00;;
42168;SDS011;27838;43.858;25.974;2023-02-28T00:23:25;13.48;;;8.57;;
42168;SDS011;27838;43.858;25.974;2023-02-28T00:25:52;13.27;;;7.45;;
42168;SDS011;27838;43.858;25.974;2023-02-28T00:28:19;16.65;;;8.13;;
42168;SDS011;27838;43.858;25.974;2023-02-28T00:30:46;11.68;;;7.65;;
42168;SDS011;27838;43.858;25.974;2023-02-28T00:33:13;11.30;;;8.18;;
42168;SDS011;27838;43.858;25.974;2023-02-28T00:35:40;9.55;;;8.23;;
42168;SDS011;27838;43.858;25.974;2023-02-28T00:38:07;10.23;;;7.72;;
42168;SDS011;27838;43.858;25.974;2023-02-28T00:40:33;11.32;;;7.85;;
42168;SDS011;27838;43.858;25.974;2023-02-28T00:43:00;10.27;;;7.82;;
42168;SDS011;27838;43.858;25.974;2023-02-28T00:45:26;12.35;;;7.93;;
42168;SDS011;27838;43.858;25.974;2023-02-28T00:47:53;9.63;;;7.40;;
42168;SDS011;27838;43.858;25.974;2023-02-28T00:50:20;12.07;;;8.30;;
42168;SDS011;27838;43.858;25.974;2023-02-28T00:52:47;10.40;;;7.13;;
42168;SDS011;27838;43.858;25.974;2023-02-28T00:55:14;9.68;;;7.47;;
42168;SDS011;27838;43.858;25.974;2023-02-28T00:57:41;12.35;;;7.57;;
42168;SDS011;27838;43.858;25.974;2023-02-28T01:00:07;11.95;;;8.02;;
42168;SDS011;27838;43.858;25.974;2023-02-28T01:02:34;10.70;;;8.05;;
42168;SDS011;27838;43.858;25.974;2023-02-28T01:05:01;9.55;;;7.75;;
42168;SDS011;27838;43.858;25.974;2023-02-28T01:07:27;10.15;;;8.25;;
42168;SDS011;27838;43.858;25.974;2023-02-28T01:09:54;11.48;;;8.35;;
42168;SDS011;27838;43.858;25.974;2023-02-28T01:12:20;10.80;;;8.18;;
42168;SDS011;27838;43.858;25.974;2023-02-28T01:14:47;12.25;;;8.63;;
42168;SDS011;27838;43.858;25.974;2023-02-28T01:17:13;12.55;;;8.63;;
42168;SDS011;27838;43.858;25.974;2023-02-28T01:19:40;13.57;;;9.75;;
42168;SDS011;27838;43.858;25.974;2023-02-28T01:22:06;12.70;;;8.60;;
42168;SDS011;27838;43.858;25.974;2023-02-28T01:24:33;9.43;;;8.00;;
42168;SDS011;27838;43.858;25.974;2023-02-28T01:27:00;10.98;;;8.13;;
42168;SDS011;27838;43.858;25.974;2023-02-28T01:29:26;10.40;;;8.55;;
42168;SDS011;27838;43.858;25.974;2023-02-28T01:31:53;12.27;;;8.38;;
42168;SDS011;27838;43.858;25.974;2023-02-28T01:34:19;9.93;;;7.65;;
42168;SDS011;27838;43.858;25.974;2023-02-28T01:36:46;11.85;;;8.13;;
42168;SDS011;27838;43.858;25.974;2023-02-28T01:39:12;12.48;;;8.32;;
42168;SDS011;27838;43.858;25.974;2023-02-28T01:41:39;14.15;;;8.80;;
42168;SDS011;27838;43.858;25.974;2023-02-28T01:44:07;14.48;;;8.82;;
42168;SDS011;27838;43.858;25.974;2023-02-28T01:46:53;11.50;;;7.95;;
42168;SDS011;27838;43.858;25.974;2023-02-28T01:49:20;11.43;;;7.82;;
42168;SDS011;27838;43.858;25.974;2023-02-28T01:51:48;12.82;;;8.15;;
42168;SDS011;27838;43.858;25.974;2023-02-28T01:54:18;9.75;;;7.60;;
42168;SDS011;27838;43.858;25.974;2023-02-28T01:56:54;11.18;;;7.57;;
42168;SDS011;27838;43.858;25.974;2023-02-28T01:59:35;10.45;;;8.02;;
42168;SDS011;27838;43.858;25.974;2023-02-28T02:02:13;9.57;;;8.07;;
42168;SDS011;27838;43.858;25.974;2023-02-28T02:04:53;9.23;;;7.80;;
42168;SDS011;27838;43.858;25.974;2023-02-28T02:07:23;9.52;;;7.97;;
42168;SDS011;27838;43.858;25.974;2023-02-28T02:15:40;10.27;;;8.10;;
42168;SDS011;27838;43.858;25.974;2023-02-28T02:18:21;10.27;;;8.05;;
42168;SDS011;27838;43.858;25.974;2023-02-28T02:32:17;10.75;;;8.10;;
42168;SDS011;27838;43.858;25.974;2023-02-28T02:35:12;10.15;;;7.63;;
42168;SDS011;27838;43.858;25.974;2023-02-28T02:37:48;10.15;;;7.43;;
42168;SDS011;27838;43.858;25.974;2023-02-28T02:40:41;11.25;;;7.80;;
42168;SDS011;27838;43.858;25.974;2023-02-28T02:43:15;11.80;;;7.53;;
42168;SDS011;27838;43.858;25.974;2023-02-28T02:45:55;13.23;;;8.90;;
42168;SDS011;27838;43.858;25.974;2023-02-28T02:48:26;14.57;;;9.50;;
42168;SDS011;27838;43.858;25.974;2023-02-28T02:51:00;15.20;;;8.88;;
42168;SDS011;27838;43.858;25.974;2023-02-28T02:53:30;14.82;;;9.20;;
42168;SDS011;27838;43.858;25.974;2023-02-28T02:56:01;13.63;;;9.45;;
42168;SDS011;27838;43.858;25.974;2023-02-28T02:58:31;14.60;;;10.02;;
42168;SDS011;27838;43.858;25.974;2023-02-28T03:03:29;14.98;;;10.10;;
42168;SDS011;27838;43.858;25.974;2023-02-28T03:05:59;15.68;;;10.82;;
42168;SDS011;27838;43.858;25.974;2023-02-28T03:08:28;13.50;;;10.60;;
42168;SDS011;27838;43.858;25.974;2023-02-28T03:13:37;15.75;;;10.88;;
42168;SDS011;27838;43.858;25.974;2023-02-28T03:16:32;15.63;;;10.85;;
42168;SDS011;27838;43.858;25.974;2023-02-28T03:25:17;19.37;;;13.30;;
42168;SDS011;27838;43.858;25.974;2023-02-28T03:27:57;24.88;;;13.90;;
42168;SDS011;27838;43.858;25.974;2023-02-28T03:30:41;22.73;;;13.57;;
42168;SDS011;27838;43.858;25.974;2023-02-28T03:33:31;21.60;;;13.10;;
42168;SDS011;27838;43.858;25.974;2023-02-28T03:36:08;22.55;;;13.30;;
42168;SDS011;27838;43.858;25.974;2023-02-28T03:38:40;19.80;;;14.07;;
42168;SDS011;27838;43.858;25.974;2023-02-28T03:41:15;18.85;;;12.48;;
42168;SDS011;27838;43.858;25.974;2023-02-28T03:43:47;21.73;;;14.65;;
42168;SDS011;27838;43.858;25.974;2023-02-28T03:46:23;18.88;;;13.57;;
42168;SDS011;27838;43.858;25.974;2023-02-28T03:51:25;20.77;;;14.68;;
42168;SDS011;27838;43.858;25.974;2023-02-28T03:53:56;20.50;;;15.10;;
42168;SDS011;27838;43.858;25.974;2023-02-28T03:56:39;18.42;;;14.30;;
42168;SDS011;27838;43.858;25.974;2023-02-28T03:59:18;20.23;;;14.32;;
42168;SDS011;27838;43.858;25.974;2023-02-28T04:01:52;18.83;;;13.95;;
42168;SDS011;27838;43.858;25.974;2023-02-28T04:04:20;20.20;;;14.13;;
42168;SDS011;27838;43.858;25.974;2023-02-28T04:06:49;20.17;;;13.95;;
42168;SDS011;27838;43.858;25.974;2023-02-28T04:09:19;21.83;;;14.75;;
42168;SDS011;27838;43.858;25.974;2023-02-28T04:11:46;21.25;;;14.98;;
42168;SDS011;27838;43.858;25.974;2023-02-28T04:16:43;20.45;;;14.77;;
42168;SDS011;27838;43.858;25.974;2023-02-28T04:19:12;21.38;;;15.95;;
42168;SDS011;27838;43.858;25.974;2023-02-28T04:21:43;24.02;;;15.57;;
42168;SDS011;27838;43.858;25.974;2023-02-28T04:24:13;22.17;;;16.05;;
42168;SDS011;27838;43.858;25.974;2023-02-28T04:26:42;22.83;;;16.13;;
42168;SDS011;27838;43.858;25.974;2023-02-28T04:29:11;20.23;;;15.65;;
42168;SDS011;27838;43.858;25.974;2023-02-28T04:31:40;22.42;;;16.17;;
42168;SDS011;27838;43.858;25.974;2023-02-28T04:34:06;23.45;;;16.20;;
42168;SDS011;27838;43.858;25.974;2023-02-28T04:36:33;24.48;;;16.33;;
42168;SDS011;27838;43.858;25.974;2023-02-28T04:39:00;23.23;;;16.02;;
42168;SDS011;27838;43.858;25.974;2023-02-28T04:41:26;22.23;;;16.08;;
42168;SDS011;27838;43.858;25.974;2023-02-28T04:43:53;24.00;;;17.27;;
42168;SDS011;27838;43.858;25.974;2023-02-28T04:46:20;22.83;;;16.48;;
42168;SDS011;27838;43.858;25.974;2023-02-28T04:48:47;24.42;;;17.75;;
42168;SDS011;27838;43.858;25.974;2023-02-28T04:51:15;26.00;;;17.85;;
42168;SDS011;27838;43.858;25.974;2023-02-28T04:53:43;24.75;;;16.88;;
42168;SDS011;27838;43.858;25.974;2023-02-28T04:56:13;26.73;;;18.67;;
42168;SDS011;27838;43.858;25.974;2023-02-28T04:58:41;28.30;;;18.88;;
42168;SDS011;27838;43.858;25.974;2023-02-28T05:01:16;24.17;;;17.23;;
42168;SDS011;27838;43.858;25.974;2023-02-28T05:03:47;26.42;;;17.63;;
42168;SDS011;27838;43.858;25.974;2023-02-28T05:06:15;24.42;;;17.92;;
42168;SDS011;27838;43.858;25.974;2023-02-28T05:08:41;30.50;;;19.10;;
42168;SDS011;27838;43.858;25.974;2023-02-28T05:11:29;25.77;;;17.73;;
42168;SDS011;27838;43.858;25.974;2023-02-28T05:14:00;27.80;;;18.73;;
42168;SDS011;27838;43.858;25.974;2023-02-28T05:16:37;30.33;;;18.65;;
42168;SDS011;27838;43.858;25.974;2023-02-28T05:19:04;28.20;;;19.45;;
42168;SDS011;27838;43.858;25.974;2023-02-28T05:21:32;29.33;;;20.05;;
42168;SDS011;27838;43.858;25.974;2023-02-28T05:24:04;28.67;;;19.17;;
42168;SDS011;27838;43.858;25.974;2023-02-28T05:26:39;28.75;;;18.90;;
42168;SDS011;27838;43.858;25.974;2023-02-28T05:29:07;30.75;;;20.08;;
42168;SDS011;27838;43.858;25.974;2023-02-28T05:31:34;28.60;;;18.75;;
42168;SDS011;27838;43.858;25.974;2023-02-28T05:34:01;31.95;;;19.00;;
42168;SDS011;27838;43.858;25.974;2023-02-28T05:36:29;28.67;;;18.58;;
42168;SDS011;27838;43.858;25.974;2023-02-28T05:38:56;35.30;;;21.05;;
42168;SDS011;27838;43.858;25.974;2023-02-28T05:41:22;32.85;;;21.20;;
42168;SDS011;27838;43.858;25.974;2023-02-28T05:43:49;34.17;;;19.95;;
42168;SDS011;27838;43.858;25.974;2023-02-28T05:46:15;35.20;;;21.02;;
42168;SDS011;27838;43.858;25.974;2023-02-28T05:48:42;34.38;;;21.60;;
42168;SDS011;27838;43.858;25.974;2023-02-28T05:51:12;31.30;;;20.02;;
42168;SDS011;27838;43.858;25.974;2023-02-28T05:53:39;30.38;;;19.85;;
42168;SDS011;27838;43.858;25.974;2023-02-28T05:56:06;31.15;;;19.90;;
42168;SDS011;27838;43.858;25.974;2023-02-28T05:58:32;29.67;;;19.30;;
42168;SDS011;27838;43.858;25.974;2023-02-28T06:00:59;29.40;;;18.65;;
42168;SDS011;27838;43.858;25.974;2023-02-28T06:03:44;30.02;;;18.67;;
42168;SDS011;27838;43.858;25.974;2023-02-28T06:06:11;29.30;;;17.70;;
42168;SDS011;27838;43.858;25.974;2023-02-28T06:08:37;33.22;;;19.50;;
42168;SDS011;27838;43.858;25.974;2023-02-28T06:11:04;31.58;;;18.48;;
42168;SDS011;27838;43.858;25.974;2023-02-28T06:13:31;29.52;;;18.40;;
42168;SDS011;27838;43.858;25.974;2023-02-28T06:16:00;29.35;;;18.08;;
42168;SDS011;27838;43.858;25.974;2023-02-28T06:18:27;31.27;;;18.08;;
42168;SDS011;27838;43.858;25.974;2023-02-28T06:20:54;28.27;;;18.50;;
42168;SDS011;27838;43.858;25.974;2023-02-28T06:23:21;30.23;;;17.73;;
42168;SDS011;27838;43.858;25.974;2023-02-28T06:25:48;33.85;;;20.70;;
42168;SDS011;27838;43.858;25.974;2023-02-28T06:28:15;28.55;;;18.33;;
42168;SDS011;27838;43.858;25.974;2023-02-28T06:30:41;25.88;;;17.83;;
42168;SDS011;27838;43.858;25.974;2023-02-28T06:33:08;27.75;;;18.15;;
42168;SDS011;27838;43.858;25.974;2023-02-28T06:35:34;32.70;;;22.60;;
42168;SDS011;27838;43.858;25.974;2023-02-28T06:38:01;28.38;;;19.60;;
42168;SDS011;27838;43.858;25.974;2023-02-28T06:40:28;27.98;;;18.90;;
42168;SDS011;27838;43.858;25.974;2023-02-28T06:42:56;26.55;;;17.70;;
42168;SDS011;27838;43.858;25.974;2023-02-28T06:45:23;30.63;;;19.25;;
42168;SDS011;27838;43.858;25.974;2023-02-28T06:47:51;26.08;;;19.85;;
42168;SDS011;27838;43.858;25.974;2023-02-28T06:50:18;34.00;;;22.42;;
42168;SDS011;27838;43.858;25.974;2023-02-28T06:52:45;33.83;;;22.98;;
42168;SDS011;27838;43.858;25.974;2023-02-28T06:55:12;35.33;;;23.80;;
42168;SDS011;27838;43.858;25.974;2023-02-28T06:57:38;36.95;;;24.73;;
42168;SDS011;27838;43.858;25.974;2023-02-28T07:00:06;37.75;;;25.63;;
42168;SDS011;27838;43.858;25.974;2023-02-28T07:02:35;37.95;;;25.25;;
42168;SDS011;27838;43.858;25.974;2023-02-28T07:05:03;30.90;;;22.13;;
42168;SDS011;27838;43.858;25.974;2023-02-28T07:07:30;31.05;;;21.58;;
42168;SDS011;27838;43.858;25.974;2023-02-28T07:09:57;31.90;;;21.65;;
42168;SDS011;27838;43.858;25.974;2023-02-28T07:12:23;29.77;;;20.23;;
42168;SDS011;27838;43.858;25.974;2023-02-28T07:14:50;32.90;;;20.60;;
42168;SDS011;27838;43.858;25.974;2023-02-28T07:17:16;30.63;;;20.77;;
42168;SDS011;27838;43.858;25.974;2023-02-28T07:19:43;30.10;;;20.20;;
42168;SDS011;27838;43.858;25.974;2023-02-28T07:22:10;28.17;;;19.15;;
42168;SDS011;27838;43.858;25.974;2023-02-28T07:24:36;27.30;;;18.15;;
42168;SDS011;27838;43.858;25.974;2023-02-28T07:27:03;31.58;;;20.83;;
42168;SDS011;27838;43.858;25.974;2023-02-28T07:29:29;31.02;;;19.58;;
42168;SDS011;27838;43.858;25.974;2023-02-28T07:31:56;30.08;;;20.25;;
42168;SDS011;27838;43.858;25.974;2023-02-28T07:34:23;28.25;;;18.58;;
42168;SDS011;27838;43.858;25.974;2023-02-28T07:36:52;26.70;;;18.42;;
42168;SDS011;27838;43.858;25.974;2023-02-28T07:39:20;30.95;;;19.48;;
42168;SDS011;27838;43.858;25.974;2023-02-28T07:41:47;30.02;;;19.40;;
42168;SDS011;27838;43.858;25.974;2023-02-28T07:44:14;30.88;;;19.88;;
42168;SDS011;27838;43.858;25.974;2023-02-28T07:46:40;29.20;;;20.00;;
42168;SDS011;27838;43.858;25.974;2023-02-28T07:49:07;32.17;;;20.30;;
42168;SDS011;27838;43.858;25.974;2023-02-28T07:51:34;28.30;;;19.85;;
42168;SDS011;27838;43.858;25.974;2023-02-28T07:54:00;27.52;;;19.08;;
42168;SDS011;27838;43.858;25.974;2023-02-28T07:56:27;31.15;;;21.67;;
42168;SDS011;27838;43.858;25.974;2023-02-28T07:58:53;25.92;;;18.77;;
42168;SDS011;27838;43.858;25.974;2023-02-28T08:01:20;28.10;;;18.48;;
42168;SDS011;27838;43.858;25.974;2023-02-28T08:03:46;28.23;;;18.73;;
42168;SDS011;27838;43.858;25.974;2023-02-28T08:06:17;31.65;;;19.17;;
42168;SDS011;27838;43.858;25.974;2023-02-28T08:08:46;30.42;;;19.88;;
42168;SDS011;27838;43.858;25.974;2023-02-28T08:11:13;32.03;;;21.17;;
42168;SDS011;27838;43.858;25.974;2023-02-28T08:13:39;30.38;;;20.05;;
42168;SDS011;27838;43.858;25.974;2023-02-28T08:16:07;27.45;;;19.35;;
42168;SDS011;27838;43.858;25.974;2023-02-28T08:18:34;31.38;;;20.23;;
42168;SDS011;27838;43.858;25.974;2023-02-28T08:21:05;29.85;;;20.67;;
42168;SDS011;27838;43.858;25.974;2023-02-28T08:23:33;32.67;;;19.38;;
42168;SDS011;27838;43.858;25.974;2023-02-28T08:26:00;32.25;;;20.92;;
42168;SDS011;27838;43.858;25.974;2023-02-28T08:28:26;32.90;;;20.83;;
42168;SDS011;27838;43.858;25.974;2023-02-28T08:30:53;35.17;;;21.15;;
42168;SDS011;27838;43.858;25.974;2023-02-28T08:33:20;28.67;;;18.67;;
42168;SDS011;27838;43.858;25.974;2023-02-28T08:35:47;31.55;;;19.83;;
42168;SDS011;27838;43.858;25.974;2023-02-28T08:38:14;29.88;;;19.60;;
42168;SDS011;27838;43.858;25.974;2023-02-28T08:40:40;34.83;;;20.52;;
42168;SDS011;27838;43.858;25.974;2023-02-28T08:43:07;31.50;;;20.08;;
42168;SDS011;27838;43.858;25.974;2023-02-28T08:45:34;31.77;;;20.85;;
42168;SDS011;27838;43.858;25.974;2023-02-28T08:48:00;28.08;;;19.73;;
42168;SDS011;27838;43.858;25.974;2023-02-28T08:50:27;31.00;;;19.83;;
42168;SDS011;27838;43.858;25.974;2023-02-28T08:52:53;32.00;;;21.42;;
42168;SDS011;27838;43.858;25.974;2023-02-28T08:55:20;31.30;;;20.42;;
42168;SDS011;27838;43.858;25.974;2023-02-28T08:57:46;33.72;;;21.33;;
42168;SDS011;27838;43.858;25.974;2023-02-28T09:00:13;32.58;;;22.50;;
42168;SDS011;27838;43.858;25.974;2023-02-28T09:02:40;32.28;;;21.77;;
42168;SDS011;27838;43.858;25.974;2023-02-28T09:05:08;35.50;;;23.15;;
42168;SDS011;27838;43.858;25.974;2023-02-28T09:07:35;30.00;;;20.40;;
42168;SDS011;27838;43.858;25.974;2023-02-28T09:10:02;29.02;;;19.98;;
42168;SDS011;27838;43.858;25.974;2023-02-28T09:12:28;34.58;;;22.17;;
42168;SDS011;27838;43.858;25.974;2023-02-28T09:15:00;32.10;;;22.23;;
42168;SDS011;27838;43.858;25.974;2023-02-28T09:17:26;35.33;;;21.13;;
42168;SDS011;27838;43.858;25.974;2023-02-28T09:19:53;27.80;;;19.83;;
42168;SDS011;27838;43.858;25.974;2023-02-28T09:22:19;28.33;;;19.17;;
42168;SDS011;27838;43.858;25.974;2023-02-28T09:24:49;27.40;;;19.17;;
42168;SDS011;27838;43.858;25.974;2023-02-28T09:27:15;27.50;;;20.08;;
42168;SDS011;27838;43.858;25.974;2023-02-28T09:29:42;28.17;;;19.08;;
42168;SDS011;27838;43.858;25.974;2023-02-28T09:32:08;26.90;;;18.25;;
42168;SDS011;27838;43.858;25.974;2023-02-28T09:34:35;29.13;;;19.85;;
42168;SDS011;27838;43.858;25.974;2023-02-28T09:37:02;29.90;;;19.55;;
42168;SDS011;27838;43.858;25.974;2023-02-28T09:39:28;28.48;;;19.65;;
42168;SDS011;27838;43.858;25.974;2023-02-28T09:41:55;30.60;;;20.58;;
42168;SDS011;27838;43.858;25.974;2023-02-28T09:44:30;30.23;;;18.65;;
42168;SDS011;27838;43.858;25.974;2023-02-28T09:47:05;27.85;;;19.13;;
42168;SDS011;27838;43.858;25.974;2023-02-28T09:49:40;27.27;;;18.85;;
42168;SDS011;27838;43.858;25.974;2023-02-28T09:52:15;29.87;;;21.00;;
42168;SDS011;27838;43.858;25.974;2023-02-28T09:54:45;40.03;;;24.48;;
42168;SDS011;27838;43.858;25.974;2023-02-28T10:05:17;27.40;;;19.20;;
42168;SDS011;27838;43.858;25.974;2023-02-28T10:12:56;29.42;;;19.52;;
42168;SDS011;27838;43.858;25.974;2023-02-28T10:15:27;29.35;;;18.52;;
42168;SDS011;27838;43.858;25.974;2023-02-28T10:17:58;30.20;;;20.45;;
42168;SDS011;27838;43.858;25.974;2023-02-28T10:20:29;31.10;;;18.98;;
42168;SDS011;27838;43.858;25.974;2023-02-28T10:25:57;26.92;;;19.10;;
42168;SDS011;27838;43.858;25.974;2023-02-28T10:30:55;24.00;;;17.52;;
42168;SDS011;27838;43.858;25.974;2023-02-28T10:35:57;32.35;;;20.08;;
42168;SDS011;27838;43.858;25.974;2023-02-28T10:38:31;30.65;;;20.98;;
42168;SDS011;27838;43.858;25.974;2023-02-28T10:41:04;27.65;;;19.58;;
42168;SDS011;27838;43.858;25.974;2023-02-28T10:43:37;36.78;;;19.70;;
42168;SDS011;27838;43.858;25.974;2023-02-28T10:48:36;33.00;;;19.25;;
42168;SDS011;27838;43.858;25.974;2023-02-28T10:51:05;28.35;;;18.83;;
42168;SDS011;27838;43.858;25.974;2023-02-28T10:53:44;38.05;;;21.83;;
42168;SDS011;27838;43.858;25.974;2023-02-28T10:58:56;29.95;;;20.40;;
42168;SDS011;27838;43.858;25.974;2023-02-28T11:03:56;32.25;;;21.05;;
42168;SDS011;27838;43.858;25.974;2023-02-28T11:06:24;30.40;;;19.90;;
42168;SDS011;27838;43.858;25.974;2023-02-28T11:09:00;28.15;;;19.38;;
42168;SDS011;27838;43.858;25.974;2023-02-28T11:11:31;29.73;;;20.55;;
42168;SDS011;27838;43.858;25.974;2023-02-28T11:14:20;29.45;;;20.23;;
42168;SDS011;27838;43.858;25.974;2023-02-28T11:16:54;28.65;;;19.33;;
42168;SDS011;27838;43.858;25.974;2023-02-28T11:19:24;35.38;;;20.80;;
42168;SDS011;27838;43.858;25.974;2023-02-28T11:21:55;37.08;;;26.23;;
42168;SDS011;27838;43.858;25.974;2023-02-28T11:24:29;70.05;;;42.90;;
42168;SDS011;27838;43.858;25.974;2023-02-28T11:27:01;51.50;;;32.75;;
42168;SDS011;27838;43.858;25.974;2023-02-28T11:29:29;30.23;;;20.50;;
42168;SDS011;27838;43.858;25.974;2023-02-28T11:32:16;36.05;;;21.25;;
42168;SDS011;27838;43.858;25.974;2023-02-28T11:34:46;33.38;;;22.58;;
42168;SDS011;27838;43.858;25.974;2023-02-28T11:37:25;36.42;;;24.48;;
42168;SDS011;27838;43.858;25.974;2023-02-28T11:39:54;33.20;;;21.67;;
42168;SDS011;27838;43.858;25.974;2023-02-28T11:48:12;34.30;;;20.33;;
42168;SDS011;27838;43.858;25.974;2023-02-28T11:54:11;32.80;;;22.42;;
42168;SDS011;27838;43.858;25.974;2023-02-28T11:56:33;39.92;;;22.42;;
42168;SDS011;27838;43.858;25.974;2023-02-28T12:04:24;49.22;;;22.67;;
42168;SDS011;27838;43.858;25.974;2023-02-28T12:10:09;44.83;;;26.45;;
42168;SDS011;27838;43.858;25.974;2023-02-28T12:27:11;40.90;;;24.75;;
42168;SDS011;27838;43.858;25.974;2023-02-28T12:32:35;39.07;;;23.47;;
42168;SDS011;27838;43.858;25.974;2023-02-28T12:35:14;35.58;;;23.60;;
42168;SDS011;27838;43.858;25.974;2023-02-28T12:40:43;33.72;;;22.70;;
42168;SDS011;27838;43.858;25.974;2023-02-28T12:43:15;36.95;;;24.15;;
42168;SDS011;27838;43.858;25.974;2023-02-28T12:45:51;35.40;;;23.73;;
42168;SDS011;27838;43.858;25.974;2023-02-28T12:48:27;43.60;;;27.67;;
42168;SDS011;27838;43.858;25.974;2023-02-28T12:51:06;36.22;;;24.08;;
42168;SDS011;27838;43.858;25.974;2023-02-28T12:56:18;37.75;;;23.73;;
42168;SDS011;27838;43.858;25.974;2023-02-28T12:59:10;38.97;;;24.83;;
42168;SDS011;27838;43.858;25.974;2023-02-28T13:04:39;36.92;;;24.27;;
42168;SDS011;27838;43.858;25.974;2023-02-28T13:10:03;35.67;;;21.73;;
42168;SDS011;27838;43.858;25.974;2023-02-28T13:12:32;33.42;;;22.27;;
42168;SDS011;27838;43.858;25.974;2023-02-28T13:18:00;32.42;;;21.52;;
42168;SDS011;27838;43.858;25.974;2023-02-28T13:20:33;32.55;;;21.67;;
42168;SDS011;27838;43.858;25.974;2023-02-28T13:23:02;31.75;;;20.80;;
42168;SDS011;27838;43.858;25.974;2023-02-28T13:28:00;41.53;;;23.27;;
42168;SDS011;27838;43.858;25.974;2023-02-28T13:38:50;31.75;;;20.80;;
42168;SDS011;27838;43.858;25.974;2023-02-28T13:41:40;28.98;;;20.73;;
42168;SDS011;27838;43.858;25.974;2023-02-28T13:44:13;26.83;;;19.83;;
42168;SDS011;27838;43.858;25.974;2023-02-28T13:49:25;34.42;;;20.42;;
42168;SDS011;27838;43.858;25.974;2023-02-28T13:59:50;27.23;;;19.45;;
42168;SDS011;27838;43.858;25.974;2023-02-28T14:05:26;26.58;;;19.50;;
42168;SDS011;27838;43.858;25.974;2023-02-28T14:07:57;26.95;;;18.90;;
42168;SDS011;27838;43.858;25.974;2023-02-28T14:16:10;29.52;;;20.48;;
42168;SDS011;27838;43.858;25.974;2023-02-28T14:18:49;29.17;;;18.52;;
42168;SDS011;27838;43.858;25.974;2023-02-28T14:35:20;26.33;;;17.67;;
42168;SDS011;27838;43.858;25.974;2023-02-28T14:37:48;26.85;;;18.20;;
42168;SDS011;27838;43.858;25.974;2023-02-28T14:40:16;23.38;;;17.63;;
